createdAt,value
2019-02-18T00:01:33.451Z,79.29
2019-02-18T00:04:02.971Z,79.25
2019-02-18T00:06:32.244Z,79.04
2019-02-18T00:09:01.348Z,79.84
2019-02-18T00:11:29.921Z,80.23
2019-02-18T00:13:58.307Z,80.18
2019-02-18T00:16:27.607Z,80.61
2019-02-18T00:18:56.723Z,80.90
2019-02-18T00:21:26.648Z,80.14
2019-02-18T00:23:55.508Z,79.89
2019-02-18T00:26:24.807Z,79.42
2019-02-18T00:28:53.508Z,79.44
2019-02-18T00:31:22.579Z,79.45
2019-02-18T00:33:51.189Z,79.71
2019-02-18T00:36:20.480Z,79.47
2019-02-18T00:38:49.359Z,79.37
2019-02-18T00:41:17.940Z,79.37
2019-02-18T00:43:47.659Z,79.41
2019-02-18T00:46:16.391Z,79.05
2019-02-18T00:48:45.340Z,79.08
2019-02-18T00:51:14.395Z,79.52
2019-02-18T00:53:42.851Z,79.10
2019-02-18T00:56:11.587Z,79.21
2019-02-18T00:58:40.480Z,79.30
2019-02-18T01:01:09.234Z,79.30
2019-02-18T01:03:38.061Z,79.48
2019-02-18T01:06:07.663Z,79.32
2019-02-18T01:08:36.049Z,79.47
2019-02-18T01:11:05.237Z,79.25
2019-02-18T01:13:33.817Z,79.04
2019-02-18T01:16:02.524Z,79.04
2019-02-18T01:18:31.308Z,79.62
2019-02-18T01:21:00.030Z,79.60
2019-02-18T01:23:29.186Z,79.87
2019-02-18T01:25:58.488Z,79.99
2019-02-18T01:28:27.269Z,79.35
2019-02-18T01:30:55.870Z,79.24
2019-02-18T01:33:24.949Z,79.17
2019-02-18T01:35:54.245Z,79.34
2019-02-18T01:38:22.940Z,79.16
2019-02-18T01:40:51.869Z,79.62
2019-02-18T01:43:23.682Z,80.14
2019-02-18T01:45:52.788Z,79.60
2019-02-18T01:48:21.785Z,79.46
2019-02-18T01:50:50.816Z,79.46
2019-02-18T01:53:19.946Z,81.16
2019-02-18T01:55:48.835Z,81.16
2019-02-18T01:58:17.448Z,80.91
2019-02-18T02:00:46.228Z,80.10
2019-02-18T02:03:15.021Z,79.93
2019-02-18T02:05:43.992Z,79.93
2019-02-18T02:08:13.008Z,79.71
2019-02-18T02:10:42.100Z,79.90
2019-02-18T02:13:31.503Z,79.90
2019-02-18T02:16:01.280Z,79.59
2019-02-18T02:18:30.399Z,79.44
2019-02-18T02:20:59.571Z,79.80
2019-02-18T02:23:28.362Z,80.39
2019-02-18T02:25:57.040Z,80.22
2019-02-18T02:28:25.911Z,79.86
2019-02-18T02:30:54.531Z,79.63
2019-02-18T02:33:23.602Z,80.57
2019-02-18T02:35:52.919Z,80.90
2019-02-18T02:38:21.902Z,81.19
2019-02-18T02:40:50.389Z,80.64
2019-02-18T02:43:18.969Z,80.28
2019-02-18T02:45:47.860Z,80.36
2019-02-18T02:48:17.169Z,80.47
2019-02-18T02:50:46.360Z,81.22
2019-02-18T02:53:15.555Z,80.84
2019-02-18T02:55:43.730Z,80.65
2019-02-18T02:58:12.407Z,80.81
2019-02-18T03:00:41.400Z,80.74
2019-02-18T03:03:10.298Z,80.18
2019-02-18T03:05:39.388Z,81.11
2019-02-18T03:08:20.063Z,81.09
2019-02-18T03:10:39.428Z,80.45
2019-02-18T03:13:08.428Z,81.33
2019-02-18T03:15:37.509Z,81.46
2019-02-18T03:18:06.650Z,81.21
2019-02-18T03:20:35.709Z,80.86
2019-02-18T03:23:04.908Z,80.25
2019-02-18T03:25:34.072Z,80.62
2019-02-18T03:28:06.638Z,80.72
2019-02-18T03:30:41.081Z,80.85
2019-02-18T03:33:10.910Z,80.35
2019-02-18T03:35:41.076Z,80.05
2019-02-18T03:38:09.901Z,80.33
2019-02-18T03:40:39.054Z,80.24
2019-02-18T03:43:08.310Z,79.81
2019-02-18T03:45:36.675Z,79.85
2019-02-18T03:48:06.293Z,79.80
2019-02-18T03:50:35.280Z,79.71
2019-02-18T03:53:04.081Z,80.01
2019-02-18T03:55:33.382Z,80.30
2019-02-18T03:58:02.419Z,80.67
2019-02-18T04:00:31.261Z,80.40
2019-02-18T04:02:59.429Z,80.16
2019-02-18T04:05:28.524Z,80.75
2019-02-18T04:07:57.101Z,80.57
2019-02-18T04:10:25.845Z,81.07
2019-02-18T04:12:55.202Z,80.56
2019-02-18T04:15:23.980Z,81.06
2019-02-18T04:17:52.984Z,80.19
2019-02-18T04:20:22.495Z,80.98
2019-02-18T04:22:51.980Z,80.98
2019-02-18T04:25:21.580Z,80.91
2019-02-18T04:27:50.488Z,81.83
2019-02-18T04:30:19.274Z,81.04
2019-02-18T04:32:48.049Z,80.52
2019-02-18T04:35:17.760Z,80.74
2019-02-18T04:37:45.989Z,81.09
2019-02-18T04:40:15.260Z,81.09
2019-02-18T04:42:44.421Z,80.95
2019-02-18T04:45:12.437Z,80.68
2019-02-18T04:47:41.505Z,80.68
2019-02-18T04:50:10.361Z,81.21
2019-02-18T04:52:38.991Z,80.25
2019-02-18T04:55:08.787Z,80.37
2019-02-18T04:57:37.360Z,80.01
2019-02-18T05:00:08.531Z,79.70
2019-02-18T05:02:38.208Z,79.76
2019-02-18T05:05:07.002Z,79.84
2019-02-18T05:07:36.201Z,80.08
2019-02-18T05:10:05.602Z,80.08
2019-02-18T05:12:34.309Z,80.13
2019-02-18T05:15:03.159Z,80.13
2019-02-18T05:17:31.980Z,80.43
2019-02-18T05:20:01.689Z,80.43
2019-02-18T05:22:31.401Z,79.46
2019-02-18T05:25:00.581Z,79.45
2019-02-18T05:27:33.285Z,80.38
2019-02-18T05:30:00.834Z,79.27
2019-02-18T05:32:30.952Z,79.27
2019-02-18T05:35:01.025Z,79.22
2019-02-18T05:37:30.990Z,78.90
2019-02-18T05:39:59.762Z,78.74
2019-02-18T05:42:28.670Z,78.74
2019-02-18T05:44:57.542Z,79.13
2019-02-18T05:47:26.256Z,79.61
2019-02-18T05:49:55.540Z,79.61
2019-02-18T05:52:23.922Z,79.56
2019-02-18T05:54:53.875Z,79.56
2019-02-18T05:57:24.261Z,79.35
2019-02-18T05:59:52.951Z,79.62
2019-02-18T06:02:22.873Z,79.60
2019-02-18T06:04:51.798Z,80.44
2019-02-18T06:07:21.341Z,79.50
2019-02-18T06:09:49.957Z,80.00
2019-02-18T06:12:19.195Z,80.33
2019-02-18T06:14:48.223Z,80.00
2019-02-18T06:17:17.518Z,80.55
2019-02-18T06:19:46.659Z,80.01
2019-02-18T06:22:15.727Z,80.31
2019-02-18T06:24:44.809Z,80.31
2019-02-18T06:27:14.057Z,79.35
2019-02-18T06:29:43.521Z,79.35
2019-02-18T06:32:12.036Z,78.96
2019-02-18T06:34:40.783Z,78.96
2019-02-18T06:37:09.789Z,79.64
2019-02-18T06:39:41.748Z,79.92
2019-02-18T06:42:11.297Z,79.92
2019-02-18T06:44:58.147Z,79.60
2019-02-18T06:47:28.780Z,79.89
2019-02-18T06:49:57.987Z,79.50
2019-02-18T06:52:26.768Z,79.46
2019-02-18T06:54:55.660Z,79.11
2019-02-18T06:57:32.528Z,78.86
2019-02-18T07:00:07.983Z,78.97
2019-02-18T07:02:53.560Z,79.01
2019-02-18T07:05:36.191Z,79.01
2019-02-18T07:08:13.370Z,78.53
2019-02-18T07:11:02.023Z,77.93
2019-02-18T07:13:32.148Z,77.93
2019-02-18T07:16:01.448Z,77.87
2019-02-18T07:18:29.920Z,77.87
2019-02-18T07:20:59.041Z,77.84
2019-02-18T07:23:28.014Z,77.53
2019-02-18T07:25:56.592Z,77.53
2019-02-18T07:28:25.780Z,78.14
2019-02-18T07:30:54.660Z,78.14
2019-02-18T07:33:23.760Z,78.14
2019-02-18T07:35:52.257Z,78.27
2019-02-18T07:38:21.342Z,78.12
2019-02-18T07:40:50.164Z,77.55
2019-02-18T07:43:19.228Z,77.32
2019-02-18T07:45:47.892Z,77.23
2019-02-18T07:48:16.908Z,77.23
2019-02-18T07:50:46.312Z,77.20
2019-02-18T07:53:15.298Z,76.90
2019-02-18T07:55:43.980Z,76.70
2019-02-18T07:58:13.808Z,76.58
2019-02-18T08:00:42.636Z,77.31
2019-02-18T08:03:11.588Z,77.25
2019-02-18T08:05:40.633Z,77.18
2019-02-18T08:08:09.363Z,78.95
2019-02-18T08:10:38.398Z,72.84
2019-02-18T08:13:07.264Z,70.51
2019-02-18T08:15:37.048Z,70.88
2019-02-18T08:18:05.940Z,69.61
2019-02-18T08:20:35.230Z,70.52
2019-02-18T08:23:03.827Z,69.85
2019-02-18T08:25:32.720Z,69.85
2019-02-18T08:28:02.229Z,69.58
2019-02-18T08:30:31.235Z,68.34
2019-02-18T08:33:00.201Z,68.34
2019-02-18T08:35:30.125Z,69.96
2019-02-18T08:37:59.222Z,69.96
2019-02-18T08:40:28.519Z,69.10
2019-02-18T08:42:58.428Z,68.41
2019-02-18T08:45:27.524Z,68.41
2019-02-18T08:47:56.414Z,68.14
2019-02-18T08:50:25.498Z,66.43
2019-02-18T08:52:55.320Z,66.43
2019-02-18T08:55:24.108Z,69.57
2019-02-18T08:57:53.003Z,67.31
2019-02-18T09:00:21.980Z,65.49
2019-02-18T09:02:51.508Z,64.74
2019-02-18T09:05:20.780Z,65.33
2019-02-18T09:07:50.575Z,64.81
2019-02-18T09:10:21.020Z,65.20
2019-02-18T09:12:49.808Z,66.22
2019-02-18T09:15:19.128Z,65.97
2019-02-18T09:17:47.300Z,65.48
2019-02-18T09:20:16.280Z,63.73
2019-02-18T09:23:04.579Z,63.33
2019-02-18T09:25:45.698Z,64.71
2019-02-18T09:28:15.224Z,62.69
2019-02-18T09:30:46.861Z,61.79
2019-02-18T09:33:15.634Z,61.45
2019-02-18T09:35:44.677Z,62.78
2019-02-18T09:38:23.772Z,62.90
2019-02-18T09:40:49.225Z,61.80
2019-02-18T09:43:14.900Z,63.19
2019-02-18T09:45:43.881Z,62.10
2019-02-18T09:48:12.888Z,63.98
2019-02-18T09:50:42.903Z,63.13
2019-02-18T09:53:12.421Z,61.71
2019-02-18T09:55:41.700Z,62.41
2019-02-18T09:58:10.481Z,61.43
2019-02-18T10:00:39.963Z,61.70
2019-02-18T10:03:08.434Z,60.41
2019-02-18T10:05:37.278Z,61.15
2019-02-18T10:08:07.431Z,64.07
2019-02-18T10:10:36.292Z,65.37
2019-02-18T10:13:05.781Z,63.78
2019-02-18T10:15:34.837Z,62.66
2019-02-18T10:18:04.279Z,62.75
2019-02-18T10:20:32.961Z,62.19
2019-02-18T10:23:02.988Z,60.84
2019-02-18T10:25:32.480Z,61.19
2019-02-18T10:28:01.589Z,60.88
2019-02-18T10:30:30.589Z,60.78
2019-02-18T10:32:59.681Z,65.73
2019-02-18T10:35:29.679Z,65.83
2019-02-18T10:37:58.103Z,64.32
2019-02-18T10:40:26.857Z,63.15
2019-02-18T10:42:55.240Z,64.10
2019-02-18T10:45:23.930Z,61.69
2019-02-18T10:47:53.000Z,63.15
2019-02-18T10:50:21.465Z,64.92
2019-02-18T10:52:50.377Z,63.27
2019-02-18T10:55:19.663Z,60.26
2019-02-18T10:57:48.467Z,59.45
2019-02-18T11:00:17.890Z,60.27
2019-02-18T11:02:46.659Z,58.95
2019-02-18T11:05:16.171Z,57.88
2019-02-18T11:07:44.801Z,59.98
2019-02-18T11:10:14.693Z,59.78
2019-02-18T11:12:43.373Z,59.84
2019-02-18T11:15:12.348Z,63.52
2019-02-18T11:17:40.928Z,62.32
2019-02-18T11:20:10.541Z,58.16
2019-02-18T11:22:40.700Z,62.66
2019-02-18T11:25:10.171Z,61.88
2019-02-18T11:27:39.636Z,62.05
2019-02-18T11:30:12.165Z,59.49
2019-02-18T11:32:42.169Z,60.95
2019-02-18T11:35:11.444Z,60.17
2019-02-18T11:37:41.370Z,58.96
2019-02-18T11:40:12.308Z,59.56
2019-02-18T11:42:41.703Z,61.90
2019-02-18T11:45:12.101Z,62.23
2019-02-18T11:47:41.220Z,58.58
2019-02-18T11:50:10.947Z,61.01
2019-02-18T11:52:40.039Z,60.00
2019-02-18T11:55:09.642Z,59.72
2019-02-18T11:57:38.475Z,57.43
2019-02-18T12:00:08.341Z,58.51
2019-02-18T12:02:38.879Z,57.37
2019-02-18T12:05:08.289Z,59.13
2019-02-18T12:07:37.984Z,58.94
2019-02-18T12:10:07.388Z,58.28
2019-02-18T12:12:36.488Z,58.46
2019-02-18T12:15:06.188Z,59.28
2019-02-18T12:17:34.981Z,57.15
2019-02-18T12:20:05.601Z,57.49
2019-02-18T12:22:34.201Z,58.14
2019-02-18T12:25:03.508Z,56.84
2019-02-18T12:27:32.589Z,58.72
2019-02-18T12:30:01.583Z,58.36
2019-02-18T12:32:30.368Z,57.87
2019-02-18T12:34:59.669Z,56.13
2019-02-18T12:37:30.141Z,57.80
2019-02-18T12:39:59.908Z,60.38
2019-02-18T12:42:29.728Z,58.20
2019-02-18T12:44:59.216Z,54.67
2019-02-18T12:47:28.001Z,57.76
2019-02-18T12:49:56.909Z,54.38
2019-02-18T12:52:26.396Z,54.28
2019-02-18T12:54:55.983Z,55.55
2019-02-18T12:57:25.427Z,55.60
2019-02-18T12:59:55.627Z,55.84
2019-02-18T13:02:24.529Z,54.68
2019-02-18T13:04:53.420Z,55.43
2019-02-18T13:07:21.700Z,57.89
2019-02-18T13:09:50.292Z,59.68
2019-02-18T13:12:19.689Z,58.06
2019-02-18T13:14:48.161Z,59.54
2019-02-18T13:17:17.961Z,58.85
2019-02-18T13:19:47.161Z,58.47
2019-02-18T13:22:15.786Z,58.52
2019-02-18T13:24:44.941Z,57.74
2019-02-18T13:27:13.642Z,56.97
2019-02-18T13:29:42.620Z,56.45
2019-02-18T13:32:11.420Z,55.22
2019-02-18T13:34:41.764Z,58.72
2019-02-18T13:37:13.280Z,59.23
2019-02-18T13:39:41.889Z,58.50
2019-02-18T13:42:10.961Z,57.04
2019-02-18T13:44:40.481Z,59.04
2019-02-18T13:47:09.369Z,58.83
2019-02-18T13:49:39.185Z,59.20
2019-02-18T13:52:08.381Z,58.89
2019-02-18T13:54:37.359Z,57.40
2019-02-18T13:57:10.036Z,55.43
2019-02-18T13:59:38.728Z,58.14
2019-02-18T14:02:08.846Z,58.36
2019-02-18T14:04:38.570Z,58.96
2019-02-18T14:07:08.430Z,57.58
2019-02-18T14:09:37.949Z,55.53
2019-02-18T14:12:06.761Z,57.26
2019-02-18T14:14:35.137Z,55.60
2019-02-18T14:17:04.443Z,54.27
2019-02-18T14:19:33.024Z,53.56
2019-02-18T14:22:02.117Z,54.50
2019-02-18T14:24:32.148Z,52.43
2019-02-18T14:27:01.748Z,53.16
2019-02-18T14:29:30.327Z,54.00
2019-02-18T14:31:59.321Z,53.64
2019-02-18T14:34:28.829Z,53.51
2019-02-18T14:36:58.128Z,54.53
2019-02-18T14:39:27.019Z,54.59
2019-02-18T14:41:56.008Z,55.37
2019-02-18T14:44:26.024Z,54.23
2019-02-18T14:46:55.228Z,52.16
2019-02-18T14:49:23.806Z,53.78
2019-02-18T14:51:53.429Z,52.00
2019-02-18T14:54:22.827Z,54.16
2019-02-18T14:56:51.600Z,55.59
2019-02-18T14:59:20.280Z,55.58
2019-02-18T15:01:49.941Z,55.08
2019-02-18T15:04:19.468Z,54.89
2019-02-18T15:06:48.279Z,54.25
2019-02-18T15:09:17.283Z,57.11
2019-02-18T15:11:47.006Z,57.57
2019-02-18T15:14:15.681Z,57.21
2019-02-18T15:16:44.788Z,57.36
2019-02-18T15:19:13.668Z,55.30
2019-02-18T15:21:42.669Z,54.79
2019-02-18T15:24:11.970Z,55.88
2019-02-18T15:26:41.862Z,54.97
2019-02-18T15:29:11.209Z,56.19
2019-02-18T15:31:41.802Z,57.43
2019-02-18T15:34:10.488Z,54.99
2019-02-18T15:36:41.129Z,56.87
2019-02-18T15:39:10.160Z,57.81
2019-02-18T15:41:40.028Z,59.08
2019-02-18T15:44:08.708Z,57.07
2019-02-18T15:46:38.578Z,57.60
2019-02-18T15:49:08.838Z,59.06
2019-02-18T15:51:37.739Z,60.41
2019-02-18T15:54:06.816Z,57.83
2019-02-18T15:56:35.429Z,60.67
2019-02-18T15:59:04.977Z,61.00
2019-02-18T16:01:35.233Z,61.97
2019-02-18T16:04:04.447Z,63.72
2019-02-18T16:06:33.240Z,63.04
2019-02-18T16:09:02.741Z,64.62
2019-02-18T16:11:31.717Z,66.67
2019-02-18T16:14:00.515Z,63.88
2019-02-18T16:16:29.729Z,63.47
2019-02-18T16:18:58.923Z,65.65
2019-02-18T16:21:27.510Z,64.21
2019-02-18T16:23:58.622Z,67.61
2019-02-18T16:26:27.620Z,67.32
2019-02-18T16:28:56.794Z,66.04
2019-02-18T16:31:25.721Z,64.11
2019-02-18T16:33:54.300Z,66.24
2019-02-18T16:36:23.309Z,67.89
2019-02-18T16:38:52.679Z,68.65
2019-02-18T16:41:21.268Z,69.21
2019-02-18T16:43:51.338Z,69.10
2019-02-18T16:46:21.161Z,68.79
2019-02-18T16:48:50.713Z,67.49
2019-02-18T16:51:19.809Z,67.63
2019-02-18T16:53:48.389Z,69.38
2019-02-18T16:56:19.550Z,66.46
2019-02-18T16:58:49.495Z,68.66
2019-02-18T17:01:18.998Z,67.75
2019-02-18T17:03:49.388Z,68.37
2019-02-18T17:06:18.584Z,68.71
2019-02-18T17:08:48.278Z,66.84
2019-02-18T17:11:17.788Z,66.95
2019-02-18T17:13:47.312Z,69.10
2019-02-18T17:16:17.100Z,69.20
2019-02-18T17:18:46.341Z,68.65
2019-02-18T17:21:16.121Z,69.49
2019-02-18T17:23:45.427Z,70.12
2019-02-18T17:26:14.728Z,69.81
2019-02-18T17:28:44.422Z,68.99
2019-02-18T17:31:15.060Z,69.97
2019-02-18T17:33:45.468Z,69.35
2019-02-18T17:36:15.081Z,69.70
2019-02-18T17:38:44.487Z,72.97
2019-02-18T17:41:14.108Z,69.60
2019-02-18T17:43:45.767Z,67.53
2019-02-18T17:46:15.452Z,68.85
2019-02-18T17:48:44.547Z,71.34
2019-02-18T17:51:14.168Z,70.75
2019-02-18T17:53:43.468Z,69.64
2019-02-18T17:56:13.889Z,68.55
2019-02-18T17:58:43.489Z,68.93
2019-02-18T18:01:12.677Z,68.56
2019-02-18T18:03:42.703Z,69.32
2019-02-18T18:06:12.221Z,70.17
2019-02-18T18:08:42.147Z,69.77
2019-02-18T18:11:13.188Z,69.05
2019-02-18T18:13:42.490Z,69.60
2019-02-18T18:16:12.680Z,68.65
2019-02-18T18:18:42.608Z,69.43
2019-02-18T18:21:11.901Z,71.46
2019-02-18T18:23:41.405Z,71.18
2019-02-18T18:26:10.900Z,71.81
2019-02-18T18:28:41.335Z,72.78
2019-02-18T18:31:11.060Z,71.95
2019-02-18T18:33:41.178Z,73.22
2019-02-18T18:36:10.588Z,68.34
2019-02-18T18:38:40.708Z,70.55
2019-02-18T18:41:10.365Z,70.35
2019-02-18T18:43:39.800Z,71.58
2019-02-18T18:46:09.403Z,70.68
2019-02-18T18:48:38.764Z,71.16
2019-02-18T18:51:08.616Z,70.69
2019-02-18T18:53:39.043Z,69.52
2019-02-18T18:56:10.278Z,70.95
2019-02-18T18:58:39.763Z,71.15
2019-02-18T19:01:09.706Z,72.76
2019-02-18T19:03:39.203Z,73.74
2019-02-18T19:06:12.624Z,73.54
2019-02-18T19:08:43.715Z,73.48
2019-02-18T19:11:16.539Z,72.32
2019-02-18T19:13:47.488Z,73.04
2019-02-18T19:16:18.198Z,73.48
2019-02-18T19:18:49.895Z,72.85
2019-02-18T19:21:20.508Z,73.11
2019-02-18T19:23:53.688Z,73.93
2019-02-18T19:26:24.748Z,73.25
2019-02-18T19:28:54.527Z,71.98
2019-02-18T19:31:28.955Z,70.36
2019-02-18T19:33:59.769Z,70.85
2019-02-18T19:36:32.204Z,71.19
2019-02-18T19:39:03.538Z,71.96
2019-02-18T19:41:33.112Z,73.54
2019-02-18T19:44:03.338Z,73.72
2019-02-18T19:46:33.988Z,74.07
2019-02-18T19:49:07.258Z,74.25
2019-02-18T19:51:37.176Z,74.51
2019-02-18T19:54:10.677Z,73.61
2019-02-18T19:56:42.029Z,73.72
2019-02-18T19:59:12.043Z,73.86
2019-02-18T20:01:41.780Z,74.10
2019-02-18T20:04:14.840Z,73.85
2019-02-18T20:06:44.568Z,75.41
2019-02-18T20:09:16.609Z,74.92
2019-02-18T20:11:46.176Z,74.74
2019-02-18T20:14:15.848Z,75.65
2019-02-18T20:16:45.545Z,75.34
2019-02-18T20:19:26.221Z,75.96
2019-02-18T20:21:55.622Z,75.92
2019-02-18T20:24:25.528Z,76.15
2019-02-18T20:26:56.189Z,75.81
2019-02-18T20:29:27.690Z,75.05
2019-02-18T20:31:57.528Z,75.29
2019-02-18T20:34:28.055Z,74.57
2019-02-18T20:36:58.150Z,74.15
2019-02-18T20:39:27.975Z,74.27
2019-02-18T20:41:58.528Z,75.45
2019-02-18T20:44:28.428Z,76.20
2019-02-18T20:46:58.349Z,76.77
2019-02-18T20:49:28.269Z,76.90
2019-02-18T20:51:58.129Z,75.19
2019-02-18T20:54:27.268Z,75.63
2019-02-18T20:56:56.870Z,76.16
2019-02-18T20:59:26.511Z,75.78
2019-02-18T21:01:56.042Z,76.08
2019-02-18T21:04:26.409Z,75.83
2019-02-18T21:06:55.959Z,75.17
2019-02-18T21:09:26.485Z,75.07
2019-02-18T21:11:56.469Z,75.68
2019-02-18T21:14:26.287Z,76.12
2019-02-18T21:16:56.214Z,76.81
2019-02-18T21:19:26.109Z,77.02
2019-02-18T21:21:56.430Z,76.39
2019-02-18T21:24:26.645Z,76.04
2019-02-18T21:26:56.268Z,75.75
2019-02-18T21:29:25.343Z,75.83
2019-02-18T21:31:54.946Z,75.76
2019-02-18T21:34:24.443Z,76.90
2019-02-18T21:36:54.161Z,77.24
2019-02-18T21:39:24.791Z,77.45
2019-02-18T21:41:54.755Z,77.50
2019-02-18T21:44:25.530Z,77.63
2019-02-18T21:46:55.156Z,78.25
2019-02-18T21:49:25.060Z,77.34
2019-02-18T21:51:54.588Z,77.11
2019-02-18T21:54:24.235Z,76.96
2019-02-18T21:56:52.968Z,77.84
2019-02-18T21:59:22.261Z,78.28
2019-02-18T22:01:52.308Z,78.01
2019-02-18T22:04:21.684Z,77.88
2019-02-18T22:06:50.789Z,77.99
2019-02-18T22:09:19.468Z,77.67
2019-02-18T22:11:49.533Z,77.13
2019-02-18T22:14:18.300Z,76.05
2019-02-18T22:16:47.159Z,76.75
2019-02-18T22:19:16.359Z,76.76
2019-02-18T22:21:45.663Z,76.64
2019-02-18T22:24:14.761Z,76.30
2019-02-18T22:26:43.970Z,76.72
2019-02-18T22:29:13.161Z,76.46
2019-02-18T22:31:41.640Z,76.58
2019-02-18T22:34:11.047Z,77.17
2019-02-18T22:36:40.303Z,77.36
2019-02-18T22:39:09.419Z,77.79
2019-02-18T22:41:38.619Z,78.02
2019-02-18T22:44:07.420Z,77.74
2019-02-18T22:46:36.400Z,77.83
2019-02-18T22:49:05.600Z,77.84
2019-02-18T22:51:34.302Z,77.70
2019-02-18T22:54:02.760Z,77.50
2019-02-18T22:56:32.687Z,78.10
2019-02-18T22:59:01.636Z,78.10
2019-02-18T23:01:30.560Z,78.10
2019-02-18T23:03:59.568Z,78.19
2019-02-18T23:06:29.281Z,77.99
2019-02-18T23:08:57.860Z,78.39
2019-02-18T23:11:26.941Z,78.51
2019-02-18T23:13:55.651Z,78.41
2019-02-18T23:16:24.828Z,77.86
2019-02-18T23:18:53.627Z,78.03
2019-02-18T23:21:22.703Z,78.44
2019-02-18T23:23:52.418Z,78.51
2019-02-18T23:26:20.873Z,78.13
2019-02-18T23:28:49.316Z,78.29
2019-02-18T23:31:18.388Z,78.79
2019-02-18T23:33:47.369Z,79.00
2019-02-18T23:36:16.360Z,79.16
2019-02-18T23:38:45.385Z,79.29
2019-02-18T23:41:14.698Z,79.16
2019-02-18T23:43:43.639Z,78.56
2019-02-18T23:46:12.440Z,78.32
2019-02-18T23:48:41.427Z,78.68
2019-02-18T23:51:12.981Z,78.68
2019-02-18T23:53:41.879Z,78.21
2019-02-18T23:56:10.606Z,77.95
2019-02-18T23:58:39.086Z,78.31
